createdAt,value
2023-03-11T00:00:46.891Z,967.34
2023-03-11T00:01:44.951Z,967.39
2023-03-11T00:02:44.902Z,967.39
2023-03-11T00:03:44.900Z,967.44
2023-03-11T00:04:44.878Z,967.52
2023-03-11T00:05:44.941Z,967.44
2023-03-11T00:06:44.866Z,967.48
2023-03-11T00:07:44.877Z,967.62
2023-03-11T00:08:44.836Z,967.32
2023-03-11T00:09:44.854Z,967.52
2023-03-11T00:10:44.817Z,967.57
2023-03-11T00:11:44.849Z,967.62
2023-03-11T00:12:44.790Z,967.64
2023-03-11T00:13:44.807Z,967.66
2023-03-11T00:14:44.778Z,967.66
2023-03-11T00:15:44.786Z,967.59
2023-03-11T00:16:44.799Z,967.63
2023-03-11T00:17:44.786Z,967.72
2023-03-11T00:18:44.743Z,967.65
2023-03-11T00:19:44.752Z,967.63
2023-03-11T00:20:44.713Z,967.75
2023-03-11T00:21:44.721Z,967.86
2023-03-11T00:22:44.688Z,967.84
2023-03-11T00:23:44.693Z,967.82
2023-03-11T00:24:44.668Z,967.87
2023-03-11T00:25:44.706Z,967.91
2023-03-11T00:26:44.658Z,967.87
2023-03-11T00:27:44.664Z,967.90
2023-03-11T00:28:44.640Z,967.96
2023-03-11T00:29:44.653Z,967.94
2023-03-11T00:30:44.653Z,968.02
2023-03-11T00:31:44.607Z,968.01
2023-03-11T00:32:44.690Z,968.01
2023-03-11T00:33:44.601Z,968.12
2023-03-11T00:34:44.573Z,968.06
2023-03-11T00:35:44.622Z,968.20
2023-03-11T00:36:44.538Z,968.08
2023-03-11T00:37:44.555Z,968.17
2023-03-11T00:38:44.563Z,968.26
2023-03-11T00:39:44.532Z,968.26
2023-03-11T00:40:44.532Z,968.35
2023-03-11T00:41:44.536Z,968.36
2023-03-11T00:42:44.480Z,968.42
2023-03-11T00:43:44.525Z,968.36
2023-03-11T00:44:44.448Z,968.33
2023-03-11T00:45:44.482Z,968.40
2023-03-11T00:46:44.434Z,968.48
2023-03-11T00:47:44.436Z,968.40
2023-03-11T00:48:44.425Z,968.37
2023-03-11T00:49:44.429Z,968.48
2023-03-11T00:50:44.396Z,968.56
2023-03-11T00:51:44.419Z,968.47
2023-03-11T00:52:44.381Z,968.49
2023-03-11T00:53:44.412Z,968.53
2023-03-11T00:54:44.342Z,968.58
2023-03-11T00:55:44.347Z,968.53
2023-03-11T00:56:44.327Z,968.58
2023-03-11T00:57:44.361Z,968.57
2023-03-11T00:58:44.303Z,968.70
2023-03-11T00:59:44.340Z,968.58
2023-03-11T01:00:44.283Z,968.67
2023-03-11T01:01:44.415Z,968.66
2023-03-11T01:02:44.281Z,968.65
2023-03-11T01:03:44.277Z,968.63
2023-03-11T01:04:44.319Z,968.64
2023-03-11T01:05:44.260Z,968.53
2023-03-11T01:06:45.615Z,968.70
2023-03-11T01:07:44.220Z,968.55
2023-03-11T01:08:44.214Z,968.58
2023-03-11T01:09:44.202Z,968.59
2023-03-11T01:10:44.187Z,968.58
2023-03-11T01:11:44.178Z,968.59
2023-03-11T01:12:44.151Z,968.72
2023-03-11T01:13:44.163Z,968.55
2023-03-11T01:14:44.144Z,968.65
2023-03-11T01:15:44.212Z,968.59
2023-03-11T01:16:44.111Z,968.70
2023-03-11T01:17:44.144Z,968.73
2023-03-11T01:18:44.088Z,968.72
2023-03-11T01:19:44.110Z,968.68
2023-03-11T01:20:44.070Z,968.77
2023-03-11T01:21:44.084Z,968.73
2023-03-11T01:22:44.046Z,968.82
2023-03-11T01:23:44.087Z,968.77
2023-03-11T01:24:44.038Z,968.77
2023-03-11T01:25:44.030Z,968.80
2023-03-11T01:26:44.004Z,968.87
2023-03-11T01:27:44.021Z,968.84
2023-03-11T01:28:43.983Z,968.86
2023-03-11T01:29:44.010Z,968.92
2023-03-11T01:30:44.026Z,968.99
2023-03-11T01:31:43.991Z,968.90
2023-03-11T01:32:44.008Z,968.95
2023-03-11T01:33:43.945Z,968.87
2023-03-11T01:34:43.917Z,968.84
2023-03-11T01:35:43.980Z,968.84
2023-03-11T01:36:43.901Z,968.82
2023-03-11T01:37:43.927Z,968.87
2023-03-11T01:38:43.872Z,968.82
2023-03-11T01:39:43.879Z,968.78
2023-03-11T01:40:43.857Z,968.81
2023-03-11T01:41:43.871Z,968.77
2023-03-11T01:42:43.847Z,968.79
2023-03-11T01:43:43.842Z,968.88
2023-03-11T01:44:43.810Z,968.82
2023-03-11T01:45:43.811Z,968.80
2023-03-11T01:46:43.827Z,968.81
2023-03-11T01:47:43.803Z,968.78
2023-03-11T01:48:43.763Z,968.82
2023-03-11T01:49:43.774Z,968.81
2023-03-11T01:50:43.761Z,968.83
2023-03-11T01:51:43.780Z,968.90
2023-03-11T01:52:43.721Z,968.91
2023-03-11T01:53:43.748Z,968.83
2023-03-11T01:54:43.721Z,969.01
2023-03-11T01:55:43.711Z,968.93
2023-03-11T01:56:43.681Z,968.93
2023-03-11T01:57:43.730Z,969.07
2023-03-11T01:58:43.667Z,969.03
2023-03-11T01:59:43.688Z,969.00
2023-03-11T02:00:43.659Z,969.02
2023-03-11T02:01:43.708Z,969.00
2023-03-11T02:02:43.648Z,969.05
2023-03-11T02:03:43.625Z,969.10
2023-03-11T02:04:43.627Z,969.13
2023-03-11T02:05:43.627Z,969.15
2023-03-11T02:06:43.575Z,969.14
2023-03-11T02:07:43.586Z,969.23
2023-03-11T02:08:43.550Z,969.28
2023-03-11T02:09:43.556Z,969.34
2023-03-11T02:10:43.538Z,969.36
2023-03-11T02:11:43.542Z,969.35
2023-03-11T02:12:43.512Z,969.29
2023-03-11T02:13:43.517Z,969.29
2023-03-11T02:14:43.498Z,969.34
2023-03-11T02:15:43.564Z,969.33
2023-03-11T02:16:43.496Z,969.28
2023-03-11T02:17:43.489Z,969.32
2023-03-11T02:18:43.453Z,969.33
2023-03-11T02:19:43.471Z,969.37
2023-03-11T02:20:43.434Z,969.40
2023-03-11T02:21:43.434Z,969.41
2023-03-11T02:22:43.417Z,969.44
2023-03-11T02:23:43.412Z,969.40
2023-03-11T02:24:43.387Z,969.43
2023-03-11T02:25:43.410Z,969.40
2023-03-11T02:26:43.374Z,969.41
2023-03-11T02:27:43.379Z,969.44
2023-03-11T02:28:43.349Z,969.44
2023-03-11T02:29:43.358Z,969.43
2023-03-11T02:30:43.322Z,969.46
2023-03-11T02:31:43.466Z,969.51
2023-03-11T02:32:43.368Z,969.50
2023-03-11T02:33:43.329Z,969.45
2023-03-11T02:34:43.311Z,969.53
2023-03-11T02:35:43.306Z,969.55
2023-03-11T02:36:43.261Z,969.50
2023-03-11T02:37:43.290Z,969.53
2023-03-11T02:38:43.248Z,969.57
2023-03-11T02:39:43.261Z,969.50
2023-03-11T02:40:43.223Z,969.56
2023-03-11T02:41:43.250Z,969.52
2023-03-11T02:42:43.198Z,969.55
2023-03-11T02:43:43.224Z,969.56
2023-03-11T02:44:43.174Z,969.56
2023-03-11T02:45:43.182Z,969.56
2023-03-11T02:46:43.261Z,969.57
2023-03-11T02:47:43.140Z,969.60
2023-03-11T02:48:43.166Z,969.69
2023-03-11T02:49:43.123Z,969.60
2023-03-11T02:50:43.133Z,969.59
2023-03-11T02:51:43.117Z,969.60
2023-03-11T02:52:43.103Z,969.64
2023-03-11T02:53:43.096Z,969.59
2023-03-11T02:54:43.100Z,969.63
2023-03-11T02:55:43.077Z,969.61
2023-03-11T02:56:43.057Z,969.64
2023-03-11T02:57:43.040Z,969.68
2023-03-11T02:58:43.050Z,969.64
2023-03-11T02:59:43.020Z,969.65
2023-03-11T03:00:43.077Z,969.67
2023-03-11T03:01:42.990Z,969.67
2023-03-11T03:02:42.999Z,969.69
2023-03-11T03:03:42.965Z,969.65
2023-03-11T03:04:43.008Z,969.64
2023-03-11T03:05:42.950Z,969.67
2023-03-11T03:06:42.960Z,969.66
2023-03-11T03:07:42.926Z,969.67
2023-03-11T03:08:42.927Z,969.67
2023-03-11T03:09:42.903Z,969.71
2023-03-11T03:10:42.922Z,969.74
2023-03-11T03:11:42.899Z,969.72
2023-03-11T03:12:42.894Z,969.74
2023-03-11T03:13:42.854Z,969.73
2023-03-11T03:14:42.863Z,969.79
2023-03-11T03:15:42.838Z,969.79
2023-03-11T03:16:43.033Z,969.78
2023-03-11T03:17:42.855Z,969.81
2023-03-11T03:18:42.830Z,969.78
2023-03-11T03:19:42.796Z,969.78
2023-03-11T03:20:42.824Z,969.84
2023-03-11T03:21:42.781Z,969.87
2023-03-11T03:22:42.790Z,969.85
2023-03-11T03:23:42.751Z,969.84
2023-03-11T03:24:42.783Z,969.90
2023-03-11T03:25:42.738Z,969.87
2023-03-11T03:26:42.746Z,969.96
2023-03-11T03:27:42.707Z,969.87
2023-03-11T03:28:42.743Z,969.87
2023-03-11T03:29:42.695Z,969.88
2023-03-11T03:30:42.718Z,969.83
2023-03-11T03:31:42.725Z,969.84
2023-03-11T03:32:42.761Z,969.88
2023-03-11T03:33:42.647Z,969.82
2023-03-11T03:34:42.647Z,969.85
2023-03-11T03:35:42.729Z,969.93
2023-03-11T03:36:42.645Z,969.97
2023-03-11T03:37:42.616Z,969.98
2023-03-11T03:38:42.631Z,970.01
2023-03-11T03:39:42.602Z,970.10
2023-03-11T03:40:42.598Z,970.05
2023-03-11T03:41:42.567Z,970.03
2023-03-11T03:42:42.584Z,970.01
2023-03-11T03:43:42.537Z,970.02
2023-03-11T03:44:42.555Z,970.11
2023-03-11T03:45:42.545Z,970.11
2023-03-11T03:46:42.543Z,970.11
2023-03-11T03:47:42.518Z,970.12
2023-03-11T03:48:42.512Z,970.14
2023-03-11T03:49:42.496Z,970.16
2023-03-11T03:50:42.489Z,970.17
2023-03-11T03:51:42.466Z,970.18
2023-03-11T03:52:42.489Z,970.24
2023-03-11T03:53:42.445Z,970.22
2023-03-11T03:54:42.456Z,970.32
2023-03-11T03:55:42.419Z,970.28
2023-03-11T03:56:42.424Z,970.29
2023-03-11T03:57:42.396Z,970.30
2023-03-11T03:58:42.410Z,970.35
2023-03-11T03:59:42.377Z,970.37
2023-03-11T04:00:42.393Z,970.45
2023-03-11T04:01:42.360Z,970.40
2023-03-11T04:02:42.383Z,970.41
2023-03-11T04:03:42.403Z,970.43
2023-03-11T04:04:42.341Z,970.50
2023-03-11T04:05:42.346Z,970.48
2023-03-11T04:06:42.321Z,970.48
2023-03-11T04:07:42.295Z,970.53
2023-03-11T04:08:42.321Z,970.50
2023-03-11T04:09:42.284Z,970.53
2023-03-11T04:10:42.290Z,970.58
2023-03-11T04:11:42.266Z,970.57
2023-03-11T04:12:42.261Z,970.64
2023-03-11T04:13:42.251Z,970.59
2023-03-11T04:14:42.259Z,970.59
2023-03-11T04:15:42.222Z,970.62
2023-03-11T04:16:42.257Z,970.57
2023-03-11T04:17:42.202Z,970.59
2023-03-11T04:18:42.203Z,970.55
2023-03-11T04:19:42.203Z,970.59
2023-03-11T04:20:42.182Z,970.61
2023-03-11T04:21:42.158Z,970.56
2023-03-11T04:22:42.163Z,970.61
2023-03-11T04:23:42.143Z,970.63
2023-03-11T04:24:42.148Z,970.65
2023-03-11T04:25:42.124Z,970.69
2023-03-11T04:26:42.135Z,970.71
2023-03-11T04:27:42.125Z,970.69
2023-03-11T04:28:42.104Z,970.73
2023-03-11T04:29:42.075Z,970.72
2023-03-11T04:30:42.274Z,970.74
2023-03-11T04:31:42.050Z,970.71
2023-03-11T04:32:42.092Z,970.75
2023-03-11T04:33:42.036Z,970.77
2023-03-11T04:34:42.051Z,970.78
2023-03-11T04:35:42.037Z,970.74
2023-03-11T04:36:42.033Z,970.74
2023-03-11T04:37:41.992Z,970.77
2023-03-11T04:38:41.995Z,970.76
2023-03-11T04:39:41.972Z,970.81
2023-03-11T04:40:42.006Z,970.79
2023-03-11T04:41:41.955Z,970.80
2023-03-11T04:42:41.954Z,970.83
2023-03-11T04:43:41.936Z,970.80
2023-03-11T04:44:41.946Z,970.86
2023-03-11T04:45:41.907Z,970.86
2023-03-11T04:46:41.921Z,970.88
2023-03-11T04:47:41.897Z,970.93
2023-03-11T04:48:41.903Z,970.87
2023-03-11T04:49:41.867Z,970.87
2023-03-11T04:50:41.881Z,970.90
2023-03-11T04:51:41.845Z,970.88
2023-03-11T04:52:41.877Z,970.89
2023-03-11T04:53:41.842Z,970.91
2023-03-11T04:54:41.834Z,970.96
2023-03-11T04:55:41.807Z,970.96
2023-03-11T04:56:41.823Z,971.00
2023-03-11T04:57:41.796Z,971.01
2023-03-11T04:58:41.803Z,970.95
2023-03-11T04:59:41.764Z,970.99
2023-03-11T05:00:41.783Z,970.98
2023-03-11T05:01:41.756Z,971.00
2023-03-11T05:02:41.764Z,971.06
2023-03-11T05:03:41.737Z,971.03
2023-03-11T05:04:41.742Z,971.05
2023-03-11T05:05:41.717Z,971.05
2023-03-11T05:06:41.708Z,971.05
2023-03-11T05:07:41.695Z,971.05
2023-03-11T05:08:41.707Z,971.03
2023-03-11T05:09:41.662Z,971.04
2023-03-11T05:10:41.672Z,971.02
2023-03-11T05:11:41.601Z,970.99
2023-03-11T05:12:41.667Z,970.98
2023-03-11T05:13:41.583Z,970.97
2023-03-11T05:14:41.579Z,971.00
2023-03-11T05:15:41.662Z,971.02
2023-03-11T05:16:41.623Z,971.04
2023-03-11T05:17:41.591Z,971.05
2023-03-11T05:18:41.600Z,971.07
2023-03-11T05:19:41.563Z,971.09
2023-03-11T05:20:41.584Z,971.11
2023-03-11T05:21:41.551Z,971.16
2023-03-11T05:22:41.505Z,971.23
2023-03-11T05:23:41.477Z,971.22
2023-03-11T05:24:41.486Z,971.25
2023-03-11T05:25:41.446Z,971.35
2023-03-11T05:26:41.452Z,971.31
2023-03-11T05:27:41.443Z,971.30
2023-03-11T05:28:41.433Z,971.35
2023-03-11T05:29:41.407Z,971.34
2023-03-11T05:30:41.433Z,971.36
2023-03-11T05:31:41.397Z,971.38
2023-03-11T05:32:41.442Z,971.42
2023-03-11T05:33:41.378Z,971.42
2023-03-11T05:34:41.379Z,971.40
2023-03-11T05:35:41.382Z,971.42
2023-03-11T05:36:41.356Z,971.45
2023-03-11T05:37:41.347Z,971.47
2023-03-11T05:38:41.349Z,971.47
2023-03-11T05:39:41.309Z,971.47
2023-03-11T05:40:41.322Z,971.47
2023-03-11T05:41:41.294Z,971.48
2023-03-11T05:42:41.295Z,971.45
2023-03-11T05:43:41.284Z,971.46
2023-03-11T05:44:41.289Z,971.47
2023-03-11T05:45:41.247Z,971.47
2023-03-11T05:46:41.360Z,971.41
2023-03-11T05:47:41.232Z,971.42
2023-03-11T05:48:41.270Z,971.43
2023-03-11T05:49:41.215Z,971.46
2023-03-11T05:50:41.219Z,971.43
2023-03-11T05:51:41.187Z,971.44
2023-03-11T05:52:41.195Z,971.46
2023-03-11T05:53:41.176Z,971.50
2023-03-11T05:54:41.184Z,971.52
2023-03-11T05:55:41.159Z,971.54
2023-03-11T05:56:41.154Z,971.55
2023-03-11T05:57:41.127Z,971.56
2023-03-11T05:58:41.130Z,971.59
2023-03-11T05:59:41.109Z,971.60
2023-03-11T06:00:41.132Z,971.63
2023-03-11T06:01:41.086Z,971.57
2023-03-11T06:02:41.107Z,971.64
2023-03-11T06:03:41.104Z,971.63
2023-03-11T06:04:41.170Z,971.62
2023-03-11T06:05:41.045Z,971.62
2023-03-11T06:06:41.064Z,971.62
2023-03-11T06:07:41.028Z,971.64
2023-03-11T06:08:41.028Z,971.65
2023-03-11T06:09:41.002Z,971.67
2023-03-11T06:10:41.014Z,971.64
2023-03-11T06:11:40.992Z,971.70
2023-03-11T06:12:41.008Z,971.71
2023-03-11T06:13:40.958Z,971.72
2023-03-11T06:14:40.979Z,971.74
2023-03-11T06:15:40.962Z,971.78
2023-03-11T06:16:41.087Z,971.78
2023-03-11T06:17:40.922Z,971.81
2023-03-11T06:18:40.944Z,971.84
2023-03-11T06:19:40.901Z,971.85
2023-03-11T06:20:40.926Z,971.88
2023-03-11T06:21:40.880Z,971.88
2023-03-11T06:22:40.908Z,971.93
2023-03-11T06:23:40.865Z,971.96
2023-03-11T06:24:40.879Z,971.95
2023-03-11T06:25:40.862Z,971.99
2023-03-11T06:26:40.842Z,971.98
2023-03-11T06:27:40.816Z,971.97
2023-03-11T06:28:40.906Z,971.99
2023-03-11T06:29:40.794Z,972.02
2023-03-11T06:30:40.805Z,972.05
2023-03-11T06:31:40.804Z,972.05
2023-03-11T06:32:40.934Z,972.09
2023-03-11T06:33:40.760Z,972.07
2023-03-11T06:34:40.771Z,972.10
2023-03-11T06:35:40.748Z,972.11
2023-03-11T06:36:40.753Z,972.11
2023-03-11T06:37:40.716Z,972.14
2023-03-11T06:38:40.721Z,972.11
2023-03-11T06:39:40.701Z,972.12
2023-03-11T06:40:40.713Z,972.12
2023-03-11T06:41:40.678Z,972.15
2023-03-11T06:42:40.690Z,972.15
2023-03-11T06:43:40.704Z,972.16
2023-03-11T06:44:40.656Z,972.17
2023-03-11T06:45:40.703Z,972.18
2023-03-11T06:46:40.664Z,972.23
2023-03-11T06:47:40.610Z,972.23
2023-03-11T06:48:40.639Z,972.28
2023-03-11T06:49:40.592Z,972.28
2023-03-11T06:50:40.595Z,972.34
2023-03-11T06:51:40.567Z,972.35
2023-03-11T06:52:40.587Z,972.35
2023-03-11T06:53:40.552Z,972.40
2023-03-11T06:54:40.572Z,972.41
2023-03-11T06:55:40.522Z,972.43
2023-03-11T06:56:40.548Z,972.41
2023-03-11T06:57:40.507Z,972.44
2023-03-11T06:58:40.523Z,972.41
2023-03-11T06:59:40.490Z,972.44
2023-03-11T07:00:42.668Z,972.44
2023-03-11T07:01:40.469Z,972.44
2023-03-11T07:02:40.457Z,972.47
2023-03-11T07:03:40.540Z,972.50
2023-03-11T07:04:40.430Z,972.49
2023-03-11T07:05:40.456Z,972.52
2023-03-11T07:06:40.419Z,972.55
2023-03-11T07:07:40.429Z,972.56
2023-03-11T07:08:40.395Z,972.58
2023-03-11T07:09:40.414Z,972.61
2023-03-11T07:10:40.366Z,972.62
2023-03-11T07:11:40.368Z,972.64
2023-03-11T07:12:40.471Z,972.66
2023-03-11T07:13:40.349Z,972.68
2023-03-11T07:14:40.342Z,972.69
2023-03-11T07:15:40.383Z,972.71
2023-03-11T07:16:40.387Z,972.74
2023-03-11T07:17:40.311Z,972.72
2023-03-11T07:18:40.280Z,972.78
2023-03-11T07:19:40.292Z,972.77
2023-03-11T07:20:40.266Z,972.79
2023-03-11T07:21:40.310Z,972.77
2023-03-11T07:22:40.241Z,972.79
2023-03-11T07:23:40.239Z,972.79
2023-03-11T07:24:40.221Z,972.84
2023-03-11T07:25:40.218Z,972.81
2023-03-11T07:26:40.321Z,972.79
2023-03-11T07:27:40.209Z,972.84
2023-03-11T07:28:40.187Z,972.82
2023-03-11T07:29:40.207Z,972.82
2023-03-11T07:30:40.149Z,972.83
2023-03-11T07:31:40.190Z,972.84
2023-03-11T07:32:40.208Z,972.84
2023-03-11T07:33:40.147Z,972.84
2023-03-11T07:34:40.106Z,972.89
2023-03-11T07:35:40.134Z,972.91
2023-03-11T07:36:40.102Z,972.93
2023-03-11T07:37:40.114Z,972.94
2023-03-11T07:38:41.737Z,972.97
2023-03-11T07:39:40.090Z,972.98
2023-03-11T07:40:40.042Z,972.99
2023-03-11T07:41:40.063Z,973.00
2023-03-11T07:42:40.042Z,973.03
2023-03-11T07:43:40.023Z,973.05
2023-03-11T07:44:40.026Z,973.03
2023-03-11T07:45:40.036Z,973.05
2023-03-11T07:46:39.983Z,973.07
2023-03-11T07:47:40.011Z,973.07
2023-03-11T07:48:39.968Z,973.08
2023-03-11T07:49:39.962Z,973.10
2023-03-11T07:50:39.932Z,973.15
2023-03-11T07:51:39.940Z,973.20
2023-03-11T07:52:39.928Z,973.20
2023-03-11T07:53:39.946Z,973.20
2023-03-11T07:54:39.899Z,973.23
2023-03-11T07:55:39.913Z,973.25
2023-03-11T07:56:39.871Z,973.26
2023-03-11T07:57:39.884Z,973.28
2023-03-11T07:58:39.878Z,973.32
2023-03-11T07:59:39.853Z,973.35
2023-03-11T08:00:39.848Z,973.41
2023-03-11T08:01:39.846Z,973.42
2023-03-11T08:02:39.888Z,973.43
2023-03-11T08:03:39.872Z,973.43
2023-03-11T08:04:39.796Z,973.45
2023-03-11T08:05:39.837Z,973.44
2023-03-11T08:06:39.766Z,973.50
2023-03-11T08:07:39.786Z,973.52
2023-03-11T08:08:39.758Z,973.55
2023-03-11T08:09:39.768Z,973.56
2023-03-11T08:10:39.728Z,973.55
2023-03-11T08:11:39.747Z,973.55
2023-03-11T08:12:39.702Z,973.61
2023-03-11T08:13:39.720Z,973.57
2023-03-11T08:14:39.693Z,973.56
2023-03-11T08:15:39.791Z,973.56
2023-03-11T08:16:39.665Z,973.58
2023-03-11T08:17:39.676Z,973.56
2023-03-11T08:18:39.638Z,973.55
2023-03-11T08:19:39.665Z,973.55
2023-03-11T08:20:39.618Z,973.54
2023-03-11T08:21:39.639Z,973.58
2023-03-11T08:22:55.541Z,973.57
2023-03-11T08:23:39.609Z,973.61
2023-03-11T08:24:39.589Z,973.62
2023-03-11T08:25:39.615Z,973.61
2023-03-11T08:26:39.560Z,973.64
2023-03-11T08:27:39.577Z,973.64
2023-03-11T08:28:39.543Z,973.69
2023-03-11T08:29:39.536Z,973.71
2023-03-11T08:30:41.893Z,973.69
2023-03-11T08:31:39.551Z,973.71
2023-03-11T08:32:39.553Z,973.71
2023-03-11T08:33:39.495Z,973.74
2023-03-11T08:34:39.549Z,973.78
2023-03-11T08:35:39.492Z,973.78
2023-03-11T08:36:39.454Z,973.76
2023-03-11T08:37:39.453Z,973.78
2023-03-11T08:38:39.453Z,973.82
2023-03-11T08:39:39.446Z,973.85
2023-03-11T08:40:39.404Z,973.83
2023-03-11T08:41:39.411Z,973.83
2023-03-11T08:42:39.391Z,973.89
2023-03-11T08:43:39.405Z,973.91
2023-03-11T08:44:39.387Z,973.89
2023-03-11T08:45:39.377Z,973.87
2023-03-11T08:46:39.420Z,973.90
2023-03-11T08:47:39.376Z,973.91
2023-03-11T08:48:39.328Z,973.91
2023-03-11T08:49:39.331Z,973.88
2023-03-11T08:50:52.835Z,973.90
2023-03-11T08:51:39.307Z,973.88
2023-03-11T08:52:39.277Z,973.89
2023-03-11T08:53:39.304Z,973.86
2023-03-11T08:54:39.253Z,973.87
2023-03-11T08:55:39.272Z,973.96
2023-03-11T08:56:39.240Z,973.93
2023-03-11T08:57:39.232Z,973.97
2023-03-11T08:58:39.228Z,974.00
2023-03-11T08:59:39.233Z,974.06
2023-03-11T09:00:39.186Z,974.06
2023-03-11T09:01:39.189Z,974.09
2023-03-11T09:02:39.211Z,974.11
2023-03-11T09:03:39.171Z,974.11
2023-03-11T09:04:39.159Z,974.11
2023-03-11T09:05:39.238Z,974.13
2023-03-11T09:06:39.120Z,974.16
2023-03-11T09:07:39.137Z,974.18
2023-03-11T09:08:39.105Z,974.17
2023-03-11T09:09:39.131Z,974.20
2023-03-11T09:10:39.083Z,974.18
2023-03-11T09:11:39.081Z,974.17
2023-03-11T09:12:39.055Z,974.16
2023-03-11T09:13:39.073Z,974.15
2023-03-11T09:14:39.630Z,974.14
2023-03-11T09:15:39.116Z,974.18
2023-03-11T09:16:39.073Z,974.18
2023-03-11T09:17:39.013Z,974.20
2023-03-11T09:18:38.990Z,974.21
2023-03-11T09:19:39.013Z,974.22
2023-03-11T09:20:38.968Z,974.22
2023-03-11T09:21:38.997Z,974.22
2023-03-11T09:22:38.947Z,974.21
2023-03-11T09:23:38.968Z,974.27
2023-03-11T09:24:38.953Z,974.27
2023-03-11T09:25:38.943Z,974.28
2023-03-11T09:26:38.918Z,974.29
2023-03-11T09:27:38.930Z,974.29
2023-03-11T09:28:38.888Z,974.32
2023-03-11T09:29:38.891Z,974.31
2023-03-11T09:30:38.864Z,974.39
2023-03-11T09:31:39.021Z,974.35
2023-03-11T09:32:38.917Z,974.35
2023-03-11T09:33:38.856Z,974.38
2023-03-11T09:34:38.826Z,974.41
2023-03-11T09:35:38.892Z,974.40
2023-03-11T09:36:38.810Z,974.42
2023-03-11T09:37:38.818Z,974.41
2023-03-11T09:38:38.777Z,974.42
2023-03-11T09:39:38.784Z,974.45
2023-03-11T09:40:38.767Z,974.48
2023-03-11T09:41:51.537Z,974.46
2023-03-11T09:42:38.761Z,974.44
2023-03-11T09:43:38.740Z,974.45
2023-03-11T09:44:38.714Z,974.44
2023-03-11T09:45:38.720Z,974.45
2023-03-11T09:46:38.731Z,974.47
2023-03-11T09:47:38.696Z,974.45
2023-03-11T09:48:38.673Z,974.44
2023-03-11T09:49:38.695Z,974.47
2023-03-11T09:50:38.649Z,974.45
2023-03-11T09:51:38.677Z,974.50
2023-03-11T09:52:38.636Z,974.51
2023-03-11T09:53:38.655Z,974.53
2023-03-11T09:54:38.610Z,974.58
2023-03-11T09:55:38.613Z,974.60
2023-03-11T09:56:38.600Z,974.62
2023-03-11T09:57:38.606Z,974.66
2023-03-11T09:58:38.561Z,974.71
2023-03-11T09:59:38.583Z,974.71
2023-03-11T10:00:38.541Z,974.76
2023-03-11T10:01:38.563Z,974.84
2023-03-11T10:02:38.705Z,974.84
2023-03-11T10:03:39.891Z,974.84
2023-03-11T10:04:38.507Z,974.86
2023-03-11T10:05:38.528Z,974.86
2023-03-11T10:06:38.479Z,974.86
2023-03-11T10:07:38.494Z,974.86
2023-03-11T10:08:38.472Z,974.83
2023-03-11T10:09:39.578Z,974.86
2023-03-11T10:10:38.437Z,974.84
2023-03-11T10:11:38.437Z,974.85
2023-03-11T10:12:38.415Z,974.87
2023-03-11T10:13:38.453Z,974.83
2023-03-11T10:14:38.414Z,974.82
2023-03-11T10:15:39.639Z,974.79
2023-03-11T10:16:38.463Z,974.79
2023-03-11T10:17:38.392Z,974.80
2023-03-11T10:18:38.348Z,974.81
2023-03-11T10:19:38.407Z,974.83
2023-03-11T10:20:38.340Z,974.83
2023-03-11T10:21:38.334Z,974.85
2023-03-11T10:22:38.304Z,974.85
2023-03-11T10:23:38.327Z,974.83
2023-03-11T10:24:38.285Z,974.98
2023-03-11T10:25:38.298Z,974.95
2023-03-11T10:26:38.266Z,974.99
2023-03-11T10:27:39.872Z,975.00
2023-03-11T10:28:38.242Z,975.02
2023-03-11T10:29:38.264Z,975.01
2023-03-11T10:30:38.237Z,974.98
2023-03-11T10:31:38.357Z,974.98
2023-03-11T10:32:38.285Z,974.96
2023-03-11T10:33:38.201Z,974.94
2023-03-11T10:34:38.193Z,974.92
2023-03-11T10:35:38.319Z,974.90
2023-03-11T10:36:38.164Z,974.90
2023-03-11T10:37:48.880Z,974.90
2023-03-11T10:38:38.143Z,974.91
2023-03-11T10:39:38.200Z,974.89
2023-03-11T10:40:38.126Z,974.88
2023-03-11T10:41:38.152Z,974.85
2023-03-11T10:42:38.094Z,974.84
2023-03-11T10:43:38.120Z,974.80
2023-03-11T10:44:38.074Z,974.78
2023-03-11T10:45:38.149Z,974.77
2023-03-11T10:46:38.059Z,974.78
2023-03-11T10:47:38.079Z,974.78
2023-03-11T10:48:38.028Z,974.79
2023-03-11T10:49:38.034Z,974.81
2023-03-11T10:50:38.013Z,974.82
2023-03-11T10:51:38.011Z,974.83
2023-03-11T10:52:38.002Z,974.82
2023-03-11T10:53:38.004Z,974.82
2023-03-11T10:54:37.970Z,974.81
2023-03-11T10:55:37.972Z,974.82
2023-03-11T10:56:37.950Z,974.84
2023-03-11T10:57:37.963Z,974.83
2023-03-11T10:58:37.925Z,974.86
2023-03-11T10:59:37.932Z,974.81
2023-03-11T11:00:37.898Z,974.79
2023-03-11T11:01:37.952Z,974.81
2023-03-11T11:02:37.888Z,974.83
2023-03-11T11:03:37.891Z,974.84
2023-03-11T11:04:37.924Z,974.91
2023-03-11T11:05:37.866Z,974.95
2023-03-11T11:06:37.868Z,974.97
2023-03-11T11:07:37.861Z,975.00
2023-03-11T11:08:37.831Z,975.03
2023-03-11T11:09:37.829Z,975.09
2023-03-11T11:10:37.805Z,975.11
2023-03-11T11:11:37.815Z,975.12
2023-03-11T11:12:37.777Z,975.19
2023-03-11T11:13:37.807Z,975.18
2023-03-11T11:14:37.756Z,975.19
2023-03-11T11:15:37.800Z,975.17
2023-03-11T11:16:37.821Z,975.23
2023-03-11T11:17:37.821Z,975.21
2023-03-11T11:18:37.726Z,975.18
2023-03-11T11:19:37.702Z,975.17
2023-03-11T11:20:37.737Z,975.16
2023-03-11T11:21:37.701Z,975.15
2023-03-11T11:22:37.696Z,975.15
2023-03-11T11:23:37.669Z,975.16
2023-03-11T11:24:37.678Z,975.16
2023-03-11T11:25:37.637Z,975.15
2023-03-11T11:26:37.654Z,975.14
2023-03-11T11:27:37.622Z,975.12
2023-03-11T11:28:37.627Z,975.12
2023-03-11T11:29:37.715Z,975.10
2023-03-11T11:30:37.663Z,975.10
2023-03-11T11:31:37.591Z,975.10
2023-03-11T11:32:37.639Z,975.07
2023-03-11T11:33:37.553Z,975.06
2023-03-11T11:34:37.575Z,975.05
2023-03-11T11:35:37.550Z,975.04
2023-03-11T11:36:37.533Z,975.04
2023-03-11T11:37:37.540Z,975.05
2023-03-11T11:38:37.530Z,975.08
2023-03-11T11:39:37.488Z,975.07
2023-03-11T11:40:37.501Z,975.09
2023-03-11T11:41:37.472Z,975.07
2023-03-11T11:42:37.473Z,975.03
2023-03-11T11:43:37.458Z,975.00
2023-03-11T11:44:37.472Z,974.97
2023-03-11T11:45:37.429Z,974.96
2023-03-11T11:46:37.430Z,974.95
2023-03-11T11:47:37.406Z,974.96
2023-03-11T11:48:37.404Z,974.96
2023-03-11T11:49:37.379Z,974.97
2023-03-11T11:50:37.406Z,974.97
2023-03-11T11:51:37.363Z,975.01
2023-03-11T11:52:37.419Z,975.00
2023-03-11T11:53:37.336Z,975.00
2023-03-11T11:54:37.354Z,975.02
2023-03-11T11:55:37.314Z,975.04
2023-03-11T11:56:37.340Z,975.05
2023-03-11T11:57:37.288Z,975.08
2023-03-11T11:58:37.306Z,975.06
2023-03-11T11:59:37.266Z,975.06
2023-03-11T12:00:37.278Z,975.07
2023-03-11T12:01:37.257Z,975.10
2023-03-11T12:02:37.259Z,975.10
2023-03-11T12:03:37.284Z,975.09
2023-03-11T12:04:37.246Z,975.09
2023-03-11T12:05:37.244Z,975.07
2023-03-11T12:06:37.205Z,975.07
2023-03-11T12:07:37.189Z,975.06
2023-03-11T12:08:37.193Z,975.04
2023-03-11T12:09:37.159Z,975.05
2023-03-11T12:10:37.168Z,975.01
2023-03-11T12:11:37.136Z,975.04
2023-03-11T12:12:37.174Z,975.05
2023-03-11T12:13:37.116Z,975.05
2023-03-11T12:14:37.132Z,975.02
2023-03-11T12:15:37.129Z,975.01
2023-03-11T12:16:37.112Z,974.99
2023-03-11T12:17:37.073Z,974.97
2023-03-11T12:18:37.087Z,974.97
2023-03-11T12:19:37.066Z,974.99
2023-03-11T12:20:37.069Z,975.00
2023-03-11T12:21:37.038Z,974.99
2023-03-11T12:22:37.050Z,975.01
2023-03-11T12:23:37.045Z,975.00
2023-03-11T12:24:37.040Z,975.01
2023-03-11T12:25:36.990Z,975.03
2023-03-11T12:26:37.005Z,975.04
2023-03-11T12:27:36.962Z,975.02
2023-03-11T12:28:36.972Z,975.00